Time;durP1;ratioP1;P1;durP2;ratioP2;P2;SDS_P1;SDS_P2;PMS_P1;PMS_P2;Temp;Humidity;BMP_temperature;BMP_pressure;BME280_temperature;BME280_humidity;BME280_pressure;Samples;Min_cycle;Max_cycle;Signal;HPM_P1;HPM_P2
2022/04/01 00:01:40;;;;;;;;;;;;;;;13.40;69.55;93666.28;5151660;27;1051;-49
2022/04/01 00:04:06;;;;;;;;;;;;;;;13.41;68.94;93659.84;5151535;27;1028;-50
2022/04/01 00:06:32;;;;;;;;;;;;;;;13.46;69.03;93673.47;5151577;27;1910;-50
2022/04/01 00:08:57;;;;;;;;;;;;;;;13.46;69.10;93673.47;5151383;27;1308;-50
2022/04/01 00:11:23;;;;;;;;;;;;;;;13.48;68.50;93677.56;5151525;27;995;-50
2022/04/01 00:13:49;;;;;;;;;;;;;;;13.47;68.72;93689.34;5150973;27;1086;-49
2022/04/01 00:16:16;;;;;;;;;;;;;;;13.50;68.40;93681.91;5151375;27;1015;-50
2022/04/01 00:18:42;;;;;;;;;;;;;;;13.45;68.54;93683.38;5151300;27;1067;-50
2022/04/01 00:21:08;;;;;;;;;;;;;;;13.52;67.41;93691.38;5151101;27;1051;-50
2022/04/01 00:23:34;;;;;;;;;;;;;;;13.54;67.35;93678.56;5151188;27;1016;-50
2022/04/01 00:26:00;;;;;;;;;;;;;;;13.71;65.35;93686.13;5150823;27;1978;-50
2022/04/01 00:28:26;;;;;;;;;;;;;;;13.78;66.09;93676.97;5151253;27;1508;-50
2022/04/01 00:30:54;;;;;;;;;;;;;;;13.70;65.63;93684.47;5151259;27;979;-50
2022/04/01 00:33:21;;;;;;;;;;;;;;;13.78;65.05;93678.84;5151218;27;1028;-50
2022/04/01 00:35:47;;;;;;;;;;;;;;;13.79;64.77;93680.47;5150606;27;1032;-49
2022/04/01 00:38:13;;;;;;;;;;;;;;;13.84;64.55;93677.97;5136750;27;1046;-50
2022/04/01 00:40:39;;;;;;;;;;;;;;;13.90;64.21;93695.09;5136988;27;1185;-50
2022/04/01 00:43:06;;;;;;;;;;;;;;;13.89;64.77;93685.38;5137019;27;1051;-50
2022/04/01 00:45:32;;;;;;;;;;;;;;;13.88;64.49;93678.38;5137202;27;1983;-50
2022/04/01 00:48:02;;;;;;;;;;;;;;;13.85;63.97;93682.31;5137124;27;968;-49
2022/04/01 00:50:30;;;;;;;;;;;;;;;13.88;64.64;93686.44;5137317;27;908;-50
2022/04/01 00:52:56;;;;;;;;;;;;;;;13.84;64.62;93697.59;5116799;27;1212;-49
2022/04/01 00:55:22;;;;;;;;;;;;;;;13.73;65.82;93711.72;5116479;28;968;-49
2022/04/01 00:57:48;;;;;;;;;;;;;;;13.68;65.25;93719.63;5116248;28;1115;-49
2022/04/01 01:00:14;;;;;;;;;;;;;;;13.74;64.12;93712.56;5116009;28;1031;-49
2022/04/01 01:02:40;;;;;;;;;;;;;;;13.77;65.00;93710.28;5116325;28;1003;-49
2022/04/01 01:05:07;;;;;;;;;;;;;;;13.62;66.74;93704.34;5116247;28;1982;-50
2022/04/01 01:07:33;;;;;;;;;;;;;;;13.33;67.42;93700.38;5115978;28;807;-50
2022/04/01 01:09:59;;;;;;;;;;;;;;;13.08;68.85;93691.13;5115935;28;1107;-50
2022/04/01 01:12:26;;;;;;;;;;;;;;;12.98;68.98;93685.41;5116008;28;1016;-49
2022/04/01 01:14:52;;;;;;;;;;;;;;;12.97;69.06;93682.94;5115740;28;1071;-49
2022/04/01 01:17:18;;;;;;;;;;;;;;;12.69;70.00;93686.69;5115861;28;1055;-49
2022/04/01 01:19:46;;;;;;;;;;;;;;;12.76;70.31;93697.44;5115894;28;1068;-49
2022/04/01 01:22:13;;;;;;;;;;;;;;;12.65;70.04;93699.72;5115900;28;1044;-48
2022/04/01 01:24:41;;;;;;;;;;;;;;;12.68;69.75;93704.66;5115929;28;1910;-49
2022/04/01 01:27:08;;;;;;;;;;;;;;;12.63;70.34;93688.38;5115661;28;1028;-49
2022/04/01 01:29:35;;;;;;;;;;;;;;;12.63;70.71;93680.31;5115519;28;1108;-50
2022/04/01 01:32:02;;;;;;;;;;;;;;;12.65;70.50;93678.28;5115559;28;979;-50
2022/04/01 01:34:32;;;;;;;;;;;;;;;12.56;70.08;93674.19;5115945;28;1127;-49
2022/04/01 01:36:58;;;;;;;;;;;;;;;12.64;69.08;93679.31;5115216;28;1107;-49
2022/04/01 01:39:25;;;;;;;;;;;;;;;12.86;68.03;93679.03;5115776;28;1031;-49
2022/04/01 01:41:53;;;;;;;;;;;;;;;13.03;66.83;93680.25;5115185;28;995;-49
2022/04/01 01:44:20;;;;;;;;;;;;;;;13.31;65.66;93681.78;5115295;28;1980;-49
2022/04/01 01:46:46;;;;;;;;;;;;;;;13.36;65.43;93670.44;5115403;28;960;-50
2022/04/01 01:49:12;;;;;;;;;;;;;;;13.50;64.98;93676.53;5114312;28;1833;-50
2022/04/01 01:57:08;;;;;;;;;;;;;;;13.48;65.18;93666.00;5135760;27;1046;-50
2022/04/01 01:59:34;;;;;;;;;;;;;;;13.34;66.65;93665.25;5135686;27;991;-50
2022/04/01 02:02:03;;;;;;;;;;;;;;;13.37;65.42;93659.44;5135268;27;1019;-49
2022/04/01 02:04:29;;;;;;;;;;;;;;;13.37;65.83;93653.25;5135739;27;1991;-49
2022/04/01 02:06:55;;;;;;;;;;;;;;;13.34;65.34;93654.53;5135545;27;975;-50
2022/04/01 02:09:21;;;;;;;;;;;;;;;13.44;65.39;93654.06;5135494;27;1016;-50
2022/04/01 02:11:47;;;;;;;;;;;;;;;13.36;65.54;93646.25;5135276;27;1118;-49
2022/04/01 02:14:14;;;;;;;;;;;;;;;13.43;64.94;93644.34;5135544;27;1134;-49
2022/04/01 02:16:43;;;;;;;;;;;;;;;13.41;64.70;93644.59;5135394;27;958;-49
2022/04/01 02:19:10;;;;;;;;;;;;;;;13.52;64.32;93647.59;5135288;27;1087;-49
2022/04/01 02:21:36;;;;;;;;;;;;;;;13.55;64.16;93648.00;5135066;27;1068;-50
2022/04/01 02:24:05;;;;;;;;;;;;;;;13.52;64.58;93634.19;5135263;27;1049;-50
2022/04/01 02:26:31;;;;;;;;;;;;;;;13.46;64.93;93627.81;5135305;27;1906;-50
2022/04/01 02:28:59;;;;;;;;;;;;;;;13.42;64.76;93623.91;5134638;27;1089;-50
2022/04/01 02:31:25;;;;;;;;;;;;;;;13.42;65.31;93630.09;5135025;27;1115;-50
2022/04/01 02:33:51;;;;;;;;;;;;;;;13.40;65.46;93620.63;5134978;27;1044;-50
2022/04/01 02:36:17;;;;;;;;;;;;;;;13.43;65.73;93617.50;5135133;27;1063;-50
2022/04/01 02:38:43;;;;;;;;;;;;;;;13.35;66.02;93623.13;5134726;27;1145;-50
2022/04/01 02:41:13;;;;;;;;;;;;;;;13.36;65.84;93630.97;5134808;27;1036;-50
2022/04/01 02:43:40;;;;;;;;;;;;;;;13.39;65.78;93625.19;5134399;27;1000;-49
2022/04/01 02:46:06;;;;;;;;;;;;;;;13.36;65.59;93614.88;5134602;27;1917;-49
2022/04/01 02:48:32;;;;;;;;;;;;;;;13.44;65.28;93616.47;5134550;27;1020;-49
2022/04/01 02:50:58;;;;;;;;;;;;;;;13.50;65.46;93625.53;5131497;27;1177;-49
2022/04/01 02:53:24;;;;;;;;;;;;;;;13.51;65.23;93635.22;5113947;28;1009;-49
2022/04/01 02:55:50;;;;;;;;;;;;;;;13.52;65.27;93624.25;5114269;28;1011;-49
2022/04/01 02:58:16;;;;;;;;;;;;;;;13.55;65.12;93625.72;5113853;28;1053;-49
2022/04/01 03:00:42;;;;;;;;;;;;;;;13.55;65.11;93623.03;5113669;28;1025;-49
2022/04/01 03:03:09;;;;;;;;;;;;;;;13.55;65.36;93633.75;5095599;28;1052;-49
2022/04/01 03:05:36;;;;;;;;;;;;;;;13.56;65.33;93635.41;5113885;28;1913;-49
2022/04/01 03:08:05;;;;;;;;;;;;;;;13.56;65.47;93630.03;5113704;28;1091;-49
2022/04/01 03:10:34;;;;;;;;;;;;;;;13.54;65.98;93624.06;5113972;28;992;-49
2022/04/01 03:13:00;;;;;;;;;;;;;;;13.57;66.06;93627.13;5113253;28;924;-49
2022/04/01 03:15:28;;;;;;;;;;;;;;;13.58;65.78;93625.25;5113790;28;1032;-49
2022/04/01 03:17:55;;;;;;;;;;;;;;;13.57;66.00;93623.63;5113862;28;980;-49
2022/04/01 03:20:22;;;;;;;;;;;;;;;13.63;65.53;93628.94;5113762;28;1024;-49
2022/04/01 03:22:48;;;;;;;;;;;;;;;13.63;66.16;93623.56;5113617;28;1031;-49
2022/04/01 03:25:18;;;;;;;;;;;;;;;13.60;65.98;93626.72;5113930;28;2037;-49
2022/04/01 03:27:48;;;;;;;;;;;;;;;13.61;66.02;93616.78;5113334;28;1082;-49
2022/04/01 03:30:15;;;;;;;;;;;;;;;13.63;65.94;93625.44;5113550;28;1080;-49
2022/04/01 03:32:41;;;;;;;;;;;;;;;13.59;66.01;93611.63;5113450;28;1856;-49
2022/04/01 03:35:08;;;;;;;;;;;;;;;13.60;66.14;93605.22;5113994;28;1000;-48
2022/04/01 03:37:34;;;;;;;;;;;;;;;13.60;66.08;93617.81;5113523;28;1036;-48
2022/04/01 03:40:01;;;;;;;;;;;;;;;13.59;66.36;93608.13;5113743;28;1028;-49
2022/04/01 03:42:31;;;;;;;;;;;;;;;13.56;66.10;93612.03;5113381;28;992;-48
2022/04/01 03:45:03;;;;;;;;;;;;;;;13.54;66.22;93616.81;5113502;28;1913;-48
2022/04/01 03:47:45;;;;;;;;;;;;;;;13.54;66.16;93599.88;5113709;28;1070;-48
2022/04/01 03:50:12;;;;;;;;;;;;;;;13.56;66.15;93617.41;5113699;28;1031;-48
2022/04/01 03:52:38;;;;;;;;;;;;;;;13.61;65.71;93619.47;5130860;28;1162;-48
2022/04/01 03:55:06;;;;;;;;;;;;;;;13.60;65.30;93599.84;5133953;28;961;-49
2022/04/01 03:57:39;;;;;;;;;;;;;;;13.59;65.53;93595.50;5133828;28;1078;-49
2022/04/01 04:00:12;;;;;;;;;;;;;;;13.65;65.32;93609.94;5133840;28;1077;-49
2022/04/01 04:02:40;;;;;;;;;;;;;;;13.55;66.07;93596.19;5134019;28;1047;-49
2022/04/01 04:05:07;;;;;;;;;;;;;;;13.29;67.38;93596.06;5133858;28;1921;-49
2022/04/01 04:07:33;;;;;;;;;;;;;;;13.15;67.52;93591.84;5133800;28;1051;-48
2022/04/01 04:09:59;;;;;;;;;;;;;;;13.06;67.40;93583.22;5133565;28;912;-49
2022/04/01 04:12:27;;;;;;;;;;;;;;;13.14;67.83;93586.69;5135883;27;1025;-48
2022/04/01 04:14:53;;;;;;;;;;;;;;;13.00;68.02;93572.53;5137519;27;1071;-49
2022/04/01 04:17:24;;;;;;;;;;;;;;;12.91;68.38;93571.94;5138007;27;1008;-48
2022/04/01 04:19:56;;;;;;;;;;;;;;;12.84;68.60;93572.00;5137689;27;977;-49
2022/04/01 04:22:24;;;;;;;;;;;;;;;12.76;69.21;93558.00;5137878;27;1044;-48
2022/04/01 04:24:54;;;;;;;;;;;;;;;12.70;69.41;93563.16;5137420;27;1909;-49
2022/04/01 04:27:25;;;;;;;;;;;;;;;12.66;69.79;93561.13;5137598;27;972;-48
2022/04/01 04:29:52;;;;;;;;;;;;;;;12.62;69.91;93559.91;5136994;27;1095;-49
2022/04/01 04:32:22;;;;;;;;;;;;;;;12.62;69.94;93570.63;5137467;27;956;-48
2022/04/01 04:34:49;;;;;;;;;;;;;;;12.63;69.97;93575.75;5136996;27;1223;-48
2022/04/01 04:37:15;;;;;;;;;;;;;;;12.61;70.00;93577.03;5137375;27;973;-48
2022/04/01 04:39:43;;;;;;;;;;;;;;;12.66;69.64;93574.53;5137044;27;1099;-48
2022/04/01 04:42:09;;;;;;;;;;;;;;;12.70;69.41;93568.53;5137420;27;948;-48
2022/04/01 04:44:36;;;;;;;;;;;;;;;12.77;69.10;93554.28;5136782;27;1909;-48
2022/04/01 04:47:05;;;;;;;;;;;;;;;12.86;68.49;93561.88;5137301;27;1051;-49
2022/04/01 04:49:31;;;;;;;;;;;;;;;12.96;67.86;93572.13;5136829;27;1035;-49
2022/04/01 04:51:58;;;;;;;;;;;;;;;13.05;67.58;93567.31;5125134;27;1212;-49
2022/04/01 04:54:25;;;;;;;;;;;;;;;13.06;67.47;93572.47;5116382;28;1015;-48
2022/04/01 04:56:54;;;;;;;;;;;;;;;13.09;66.92;93566.69;5116159;28;1075;-49
2022/04/01 04:59:22;;;;;;;;;;;;;;;13.21;66.40;93555.28;5116403;28;1024;-48
2022/04/01 05:01:55;;;;;;;;;;;;;;;13.27;66.13;93554.41;5116083;28;1024;-49
2022/04/01 05:04:39;;;;;;;;;;;;;;;13.34;66.37;93549.03;5116011;28;1086;-48
2022/04/01 05:07:05;;;;;;;;;;;;;;;13.39;65.53;93554.56;5116343;28;1139;-48
2022/04/01 05:09:37;;;;;;;;;;;;;;;13.48;65.72;93548.69;5115977;28;1028;-48
2022/04/01 05:12:11;;;;;;;;;;;;;;;13.39;65.53;93560.75;5116015;28;976;-49
2022/04/01 05:14:57;;;;;;;;;;;;;;;13.44;65.38;93552.84;5115829;28;1115;-48
2022/04/01 05:17:26;;;;;;;;;;;;;;;13.55;65.07;93547.84;5102048;28;1824;-49
2022/04/01 05:19:56;;;;;;;;;;;;;;;13.64;65.05;93557.28;5115777;28;1007;-48
2022/04/01 05:22:25;;;;;;;;;;;;;;;13.70;64.83;93558.25;5115684;28;1036;-49
2022/04/01 05:24:52;;;;;;;;;;;;;;;13.75;64.91;93563.78;5115542;28;1914;-49
2022/04/01 05:27:34;;;;;;;;;;;;;;;13.79;64.66;93562.28;5115634;28;1036;-47
2022/04/01 05:30:12;;;;;;;;;;;;;;;13.82;64.49;93557.31;5115425;28;1128;-48
2022/04/01 05:32:39;;;;;;;;;;;;;;;13.86;64.20;93553.13;5115723;28;1052;-48
2022/04/01 05:35:06;;;;;;;;;;;;;;;13.89;64.10;93551.06;5115361;28;1027;-49
2022/04/01 05:37:34;;;;;;;;;;;;;;;13.92;63.94;93548.75;5115505;28;980;-49
2022/04/01 05:40:05;;;;;;;;;;;;;;;13.89;64.60;93569.84;5115366;28;965;-49
2022/04/01 05:42:32;;;;;;;;;;;;;;;13.90;64.05;93555.41;5115302;28;1064;-49
2022/04/01 05:45:01;;;;;;;;;;;;;;;13.97;63.71;93545.41;5115249;28;2005;-49
2022/04/01 05:47:30;;;;;;;;;;;;;;;14.10;63.18;93537.22;5115687;28;1027;-54
2022/04/01 05:49:57;;;;;;;;;;;;;;;14.21;62.91;93549.94;5115273;28;1019;-49
2022/04/01 05:52:23;;;;;;;;;;;;;;;14.28;62.77;93555.22;5130768;27;1141;-49
2022/04/01 05:54:50;;;;;;;;;;;;;;;14.29;62.64;93559.56;5135636;27;1087;-49
2022/04/01 05:57:17;;;;;;;;;;;;;;;14.37;62.51;93569.22;5135919;27;1003;-48
2022/04/01 05:59:44;;;;;;;;;;;;;;;14.43;62.83;93557.56;5135701;27;988;-49
2022/04/01 06:02:13;;;;;;;;;;;;;;;14.53;62.43;93568.63;5135498;27;1087;-49
2022/04/01 06:04:58;;;;;;;;;;;;;;;14.63;61.94;93565.44;5135472;27;1990;-49
2022/04/01 06:07:32;;;;;;;;;;;;;;;14.70;60.95;93571.56;5135883;27;977;-49
2022/04/01 06:10:09;;;;;;;;;;;;;;;14.77;60.59;93577.66;5135319;27;953;-49
2022/04/01 06:12:41;;;;;;;;;;;;;;;14.92;60.44;93568.41;5135339;27;1020;-49
2022/04/01 06:15:07;;;;;;;;;;;;;;;15.02;60.46;93563.28;5135045;27;1079;-49
2022/04/01 06:17:33;;;;;;;;;;;;;;;15.16;59.64;93570.16;5135605;27;1063;-48
2022/04/01 06:20:03;;;;;;;;;;;;;;;15.26;59.07;93558.84;5135105;27;1075;-49
2022/04/01 06:22:33;;;;;;;;;;;;;;;15.30;58.72;93560.00;5135439;27;994;-49
2022/04/01 06:24:59;;;;;;;;;;;;;;;15.35;59.17;93565.53;5135262;27;1906;-49
2022/04/01 06:27:29;;;;;;;;;;;;;;;15.43;58.53;93570.59;5134943;27;965;-49
2022/04/01 06:30:08;;;;;;;;;;;;;;;15.71;57.98;93561.06;5134942;27;1222;-49
2022/04/01 06:32:40;;;;;;;;;;;;;;;16.68;55.13;93567.09;5135178;27;1019;-49
2022/04/01 06:35:06;;;;;;;;;;;;;;;17.87;52.49;93563.75;5134547;27;980;-49
2022/04/01 06:37:35;;;;;;;;;;;;;;;18.83;51.12;93553.81;5134908;27;1185;-50
2022/04/01 06:40:05;;;;;;;;;;;;;;;19.64;48.02;93562.03;5134965;27;1044;-50
2022/04/01 06:42:32;;;;;;;;;;;;;;;20.72;45.06;93554.81;5134791;27;1193;-50
2022/04/01 06:44:59;;;;;;;;;;;;;;;22.33;42.53;93558.56;5134694;27;1999;-50
2022/04/01 06:47:25;;;;;;;;;;;;;;;23.44;39.38;93565.91;5134958;27;976;-50
2022/04/01 06:49:51;;;;;;;;;;;;;;;24.13;38.05;93574.28;5134657;27;1091;-51
2022/04/01 06:52:19;;;;;;;;;;;;;;;24.79;36.96;93563.91;5102209;28;1221;-51
2022/04/01 06:54:46;;;;;;;;;;;;;;;23.43;39.73;93577.09;5113910;28;1032;-51
2022/04/01 06:57:12;;;;;;;;;;;;;;;21.45;42.80;93573.06;5114239;28;997;-50
2022/04/01 06:59:39;;;;;;;;;;;;;;;20.98;42.67;93553.03;5114249;28;972;-49
2022/04/01 07:02:05;;;;;;;;;;;;;;;19.44;46.54;93562.63;5114049;28;1089;-50
2022/04/01 07:04:31;;;;;;;;;;;;;;;18.57;48.74;93550.72;5114044;28;2051;-50
2022/04/01 07:06:59;;;;;;;;;;;;;;;18.13;49.63;93551.44;5113696;28;1100;-50
2022/04/01 07:09:25;;;;;;;;;;;;;;;17.61;51.48;93548.94;5113768;28;1003;-50
2022/04/01 07:11:53;;;;;;;;;;;;;;;17.64;50.06;93544.91;5113745;28;1074;-50
2022/04/01 07:14:19;;;;;;;;;;;;;;;17.94;49.75;93550.03;5113874;28;1878;-49
2022/04/01 07:16:45;;;;;;;;;;;;;;;18.20;49.50;93543.16;5113881;28;1043;-49
2022/04/01 07:19:11;;;;;;;;;;;;;;;18.13;49.35;93542.50;5113913;28;977;-50
2022/04/01 07:21:37;;;;;;;;;;;;;;;20.23;46.63;93546.84;5113922;28;972;-49
2022/04/01 07:24:04;;;;;;;;;;;;;;;20.44;45.85;93556.75;5113821;28;1012;-49
2022/04/01 07:26:30;;;;;;;;;;;;;;;19.81;46.62;93567.38;5113753;28;1991;-50
2022/04/01 07:28:56;;;;;;;;;;;;;;;18.94;48.16;93552.84;5113459;28;1243;-50
2022/04/01 07:34:07;;;;;;;;;;;;;;;18.75;50.64;93568.56;5113687;28;1032;-49
2022/04/01 07:36:34;;;;;;;;;;;;;;;17.87;52.43;93554.78;5113450;28;1313;-49
2022/04/01 07:38:59;;;;;;;;;;;;;;;17.33;54.97;93565.97;5113645;28;1084;-49
2022/04/01 07:41:29;;;;;;;;;;;;;;;17.05;55.72;93564.09;5113752;28;1041;-50
2022/04/01 07:43:55;;;;;;;;;;;;;;;16.76;55.84;93564.81;5113798;28;1036;-49
2022/04/01 07:46:21;;;;;;;;;;;;;;;16.47;58.35;93569.34;5113855;28;1901;-50
2022/04/01 07:48:47;;;;;;;;;;;;;;;16.40;57.57;93574.03;5117751;28;988;-49
2022/04/01 07:51:14;;;;;;;;;;;;;;;16.60;55.94;93581.78;5122881;27;1181;-50
2022/04/01 07:53:39;;;;;;;;;;;;;;;16.97;55.43;93559.88;5138209;27;1028;-50
2022/04/01 07:56:05;;;;;;;;;;;;;;;17.50;55.47;93572.25;5138188;27;1055;-49
2022/04/01 07:58:31;;;;;;;;;;;;;;;18.13;53.44;93581.16;5138161;27;1040;-50
2022/04/01 08:00:59;;;;;;;;;;;;;;;18.88;49.38;93587.19;5138214;27;1048;-49
2022/04/01 08:03:25;;;;;;;;;;;;;;;18.70;50.29;93582.03;5137837;27;960;-50
2022/04/01 08:05:51;;;;;;;;;;;;;;;18.29;50.10;93563.31;5137766;27;2005;-50
2022/04/01 08:08:19;;;;;;;;;;;;;;;17.97;49.50;93565.78;5137898;27;976;-50
2022/04/01 08:10:45;;;;;;;;;;;;;;;17.80;50.71;93560.34;5137994;27;977;-50
2022/04/01 08:13:11;;;;;;;;;;;;;;;17.73;51.25;93563.19;5137389;27;1163;-49
2022/04/01 08:15:37;;;;;;;;;;;;;;;17.59;50.17;93571.88;5137840;27;995;-49
2022/04/01 08:18:03;;;;;;;;;;;;;;;17.38;51.63;93568.78;5137472;27;1048;-50
2022/04/01 08:20:30;;;;;;;;;;;;;;;17.33;51.06;93577.59;5137512;27;1865;-50
2022/04/01 08:22:56;;;;;;;;;;;;;;;17.35;50.99;93583.56;5137648;27;957;-50
2022/04/01 08:25:22;;;;;;;;;;;;;;;17.30;50.86;93590.75;5137570;27;1989;-50
2022/04/01 08:27:48;;;;;;;;;;;;;;;17.37;50.45;93586.84;5137564;27;1063;-50
2022/04/01 08:30:14;;;;;;;;;;;;;;;17.60;50.38;93582.41;5137371;27;1211;-50
2022/04/01 08:32:40;;;;;;;;;;;;;;;17.81;49.61;93588.19;5137279;27;1119;-50
2022/04/01 08:35:07;;;;;;;;;;;;;;;17.98;49.28;93572.81;5137440;27;1043;-50
2022/04/01 08:37:33;;;;;;;;;;;;;;;18.56;48.09;93572.63;5137130;27;1052;-50
2022/04/01 08:40:00;;;;;;;;;;;;;;;18.34;47.69;93570.69;5137458;27;1029;-50
2022/04/01 08:42:27;;;;;;;;;;;;;;;18.50;48.59;93582.56;5137282;27;973;-50
2022/04/01 08:44:54;;;;;;;;;;;;;;;18.70;47.66;93582.03;5136881;27;1988;-51
2022/04/01 08:47:20;;;;;;;;;;;;;;;18.51;47.66;93584.19;5137403;27;965;-50
2022/04/01 08:49:46;;;;;;;;;;;;;;;19.29;45.82;93587.69;5136730;27;1118;-50
2022/04/01 08:52:12;;;;;;;;;;;;;;;20.09;44.34;93585.28;5123576;27;1184;-50
2022/04/01 08:54:38;;;;;;;;;;;;;;;19.64;45.76;93580.22;5116496;28;1028;-50
2022/04/01 08:57:05;;;;;;;;;;;;;;;19.37;44.67;93572.03;5115905;28;1083;-49
2022/04/01 08:59:31;;;;;;;;;;;;;;;19.15;45.71;93566.66;5116238;28;1029;-50
2022/04/01 09:02:04;;;;;;;;;;;;;;;18.89;47.00;93563.63;5116212;28;1032;-50
2022/04/01 09:04:31;;;;;;;;;;;;;;;19.16;46.36;93557.44;5116254;28;976;-50
2022/04/01 09:07:08;;;;;;;;;;;;;;;19.59;44.46;93570.13;5116021;28;1910;-50
2022/04/01 09:09:34;;;;;;;;;;;;;;;19.87;45.09;93557.41;5115856;28;1111;-50
2022/04/01 09:12:06;;;;;;;;;;;;;;;20.00;43.90;93548.03;5116088;28;1036;-50
2022/04/01 09:14:33;;;;;;;;;;;;;;;19.95;43.20;93551.50;5116235;28;1040;-50
2022/04/01 09:17:00;;;;;;;;;;;;;;;20.79;42.16;93547.25;5115893;28;1044;-49
2022/04/01 09:19:31;;;;;;;;;;;;;;;21.19;40.64;93532.22;5116004;28;997;-50
2022/04/01 09:21:57;;;;;;;;;;;;;;;20.70;41.76;93554.25;5115849;28;1012;-50
2022/04/01 09:24:24;;;;;;;;;;;;;;;20.53;42.03;93548.16;5115932;28;1024;-49
2022/04/01 09:26:54;;;;;;;;;;;;;;;21.70;40.30;93557.91;5115656;28;1977;-50
2022/04/01 09:29:21;;;;;;;;;;;;;;;22.45;40.06;93550.09;5115418;28;1130;-51
2022/04/01 09:31:50;;;;;;;;;;;;;;;21.63;40.36;93526.38;5115984;28;1016;-50
2022/04/01 09:34:16;;;;;;;;;;;;;;;21.87;40.03;93516.88;5115731;28;964;-51
2022/04/01 09:36:43;;;;;;;;;;;;;;;21.60;40.11;93529.59;5115608;28;1063;-51
2022/04/01 09:39:16;;;;;;;;;;;;;;;20.80;41.39;93520.91;5115427;28;948;-50
2022/04/01 09:41:46;;;;;;;;;;;;;;;21.22;41.69;93515.34;5115710;28;1055;-50
2022/04/01 09:44:12;;;;;;;;;;;;;;;21.03;40.76;93515.00;5115738;28;968;-49
2022/04/01 09:46:43;;;;;;;;;;;;;;;21.79;40.28;93518.22;5115651;28;1906;-51
2022/04/01 09:49:09;;;;;;;;;;;;;;;22.46;38.66;93527.22;5115273;28;967;-50
2022/04/01 09:51:39;;;;;;;;;;;;;;;23.04;38.15;93526.03;5123690;27;1173;-50
2022/04/01 09:54:05;;;;;;;;;;;;;;;22.89;38.23;93519.47;5135500;27;1185;-51
2022/04/01 09:56:39;;;;;;;;;;;;;;;22.84;37.94;93524.97;5136005;27;1019;-50
2022/04/01 09:59:05;;;;;;;;;;;;;;;23.13;38.00;93514.25;5135507;27;1114;-50
2022/04/01 10:01:33;;;;;;;;;;;;;;;23.73;37.25;93522.41;5135642;27;1024;-50
2022/04/01 10:03:59;;;;;;;;;;;;;;;23.24;37.66;93508.75;5135805;27;979;-50
2022/04/01 10:06:25;;;;;;;;;;;;;;;22.78;38.01;93507.81;5135755;27;1978;-49
2022/04/01 10:08:52;;;;;;;;;;;;;;;23.23;37.82;93505.22;5134783;27;1003;-49
2022/04/01 10:11:19;;;;;;;;;;;;;;;23.50;37.25;93495.81;5135079;27;968;-49
2022/04/01 10:13:46;;;;;;;;;;;;;;;23.41;36.61;93505.66;5135028;27;1048;-49
2022/04/01 10:16:12;;;;;;;;;;;;;;;23.00;36.47;93501.19;5135226;27;1123;-50
2022/04/01 10:18:42;;;;;;;;;;;;;;;22.42;37.68;93494.28;5135665;27;973;-49
2022/04/01 10:21:09;;;;;;;;;;;;;;;22.52;37.18;93487.16;5134948;27;1961;-49
2022/04/01 10:23:37;;;;;;;;;;;;;;;22.10;38.08;93482.84;5135452;27;965;-51
2022/04/01 10:26:08;;;;;;;;;;;;;;;21.91;38.78;93477.16;5134867;27;1991;-50
2022/04/01 10:28:35;;;;;;;;;;;;;;;21.45;39.53;93477.94;5135179;27;1265;-51
2022/04/01 10:31:02;;;;;;;;;;;;;;;21.05;40.87;93463.13;5135029;27;1000;-50
2022/04/01 10:33:35;;;;;;;;;;;;;;;21.35;40.23;93470.53;5135069;27;1028;-50
2022/04/01 10:36:19;;;;;;;;;;;;;;;21.17;40.53;93479.19;5134759;27;1016;-51
2022/04/01 10:38:47;;;;;;;;;;;;;;;20.96;40.46;93479.16;5134757;27;1012;-51
2022/04/01 10:41:14;;;;;;;;;;;;;;;20.97;39.95;93485.38;5135018;27;1071;-50
2022/04/01 10:43:42;;;;;;;;;;;;;;;20.81;40.75;93485.34;5134760;27;1020;-51
2022/04/01 10:46:11;;;;;;;;;;;;;;;20.38;42.23;93470.97;5134629;27;1933;-50
2022/04/01 10:51:38;;;;;;;;;;;;;;;19.99;42.59;93484.00;5128193;27;1228;-50
2022/04/01 10:54:12;;;;;;;;;;;;;;;19.73;43.45;93482.97;5114099;28;1135;-49
2022/04/01 10:56:38;;;;;;;;;;;;;;;19.60;43.03;93489.63;5113950;28;1020;-50
2022/04/01 10:59:04;;;;;;;;;;;;;;;19.48;45.57;93468.09;5114218;28;1044;-50
2022/04/01 11:01:31;;;;;;;;;;;;;;;19.43;45.90;93485.13;5113739;28;1021;-50
2022/04/01 11:04:20;;;;;;;;;;;;;;;19.58;47.86;93470.06;5113838;28;1080;-50
2022/04/01 11:06:49;;;;;;;;;;;;;;;19.60;49.60;93468.75;5102909;28;1985;-50
2022/04/01 11:09:34;;;;;;;;;;;;;;;19.43;51.12;93477.00;5114037;28;1020;-50
2022/04/01 11:12:15;;;;;;;;;;;;;;;18.80;54.04;93481.16;5113638;28;971;-49
2022/04/01 11:14:56;;;;;;;;;;;;;;;18.27;56.12;93483.50;5114080;28;1064;-50
2022/04/01 11:17:23;;;;;;;;;;;;;;;17.76;57.81;93481.63;5113782;28;1099;-49
2022/04/01 11:20:08;;;;;;;;;;;;;;;17.70;56.93;93469.09;5113756;28;1040;-50
2022/04/01 11:22:35;;;;;;;;;;;;;;;18.03;56.72;93456.63;5113647;28;949;-50
2022/04/01 11:25:01;;;;;;;;;;;;;;;18.27;58.72;93467.25;5113824;28;1910;-50
2022/04/01 11:27:27;;;;;;;;;;;;;;;17.86;59.71;93462.06;5113751;28;1837;-50
2022/04/01 11:30:13;;;;;;;;;;;;;;;17.58;61.38;93472.94;5113530;28;1230;-50
2022/04/01 11:32:40;;;;;;;;;;;;;;;17.29;60.98;93459.50;5113976;28;1028;-49
2022/04/01 11:35:09;;;;;;;;;;;;;;;17.26;61.58;93458.06;5113388;28;984;-49
2022/04/01 11:37:36;;;;;;;;;;;;;;;17.18;60.89;93466.59;5113845;28;1067;-51
2022/04/01 11:40:12;;;;;;;;;;;;;;;16.84;63.82;93455.72;5113557;28;1028;-50
2022/04/01 11:42:50;;;;;;;;;;;;;;;16.63;66.28;93453.66;5113423;28;1024;-49
2022/04/01 11:45:16;;;;;;;;;;;;;;;16.70;65.49;93451.66;5113674;28;1906;-50
2022/04/01 11:47:42;;;;;;;;;;;;;;;16.97;66.71;93427.63;5113449;28;1005;-50
2022/04/01 11:50:16;;;;;;;;;;;;;;;17.23;63.78;93407.28;5113472;28;1028;-50
2022/04/01 11:52:44;;;;;;;;;;;;;;;17.76;61.43;93415.94;5131483;28;1177;-50
2022/04/01 11:55:17;;;;;;;;;;;;;;;18.21;62.08;93441.19;5134335;28;987;-50
2022/04/01 11:57:44;;;;;;;;;;;;;;;18.76;61.31;93431.31;5133781;28;1024;-51
2022/04/01 12:00:10;;;;;;;;;;;;;;;19.26;59.59;93412.09;5134276;28;965;-50
2022/04/01 12:02:37;;;;;;;;;;;;;;;19.39;55.24;93401.88;5133745;28;1103;-50
2022/04/01 12:05:03;;;;;;;;;;;;;;;19.18;55.93;93393.59;5134061;28;1910;-50
2022/04/01 12:10:18;;;;;;;;;;;;;;;19.00;55.27;93380.44;5134268;28;937;-50
2022/04/01 12:12:58;;;;;;;;;;;;;;;18.91;54.54;93391.72;5133732;28;991;-50
2022/04/01 12:15:39;;;;;;;;;;;;;;;18.72;54.75;93399.34;5133829;28;1087;-50
2022/04/01 12:18:12;;;;;;;;;;;;;;;18.78;54.81;93396.69;5115495;28;1040;-51
2022/04/01 12:20:39;;;;;;;;;;;;;;;18.69;53.22;93401.75;5134018;28;976;-51
2022/04/01 12:23:05;;;;;;;;;;;;;;;18.56;53.68;93413.78;5133436;28;1024;-51
2022/04/01 12:25:32;;;;;;;;;;;;;;;18.65;57.22;93414.16;5133904;28;1991;-51
2022/04/01 12:28:03;;;;;;;;;;;;;;;18.55;57.33;93409.41;5133284;28;1241;-53
2022/04/01 12:30:32;;;;;;;;;;;;;;;18.37;57.24;93404.34;5133762;28;1028;-50
2022/04/01 12:33:03;;;;;;;;;;;;;;;18.24;56.73;93409.06;5134689;27;1087;-50
2022/04/01 12:35:29;;;;;;;;;;;;;;;18.38;56.93;93404.06;5137262;27;1036;-50
2022/04/01 12:38:21;;;;;;;;;;;;;;;18.33;58.54;93417.56;5137340;27;974;-50
2022/04/01 12:40:51;;;;;;;;;;;;;;;18.18;58.88;93425.47;5132602;27;1170;-50
2022/04/01 12:43:46;;;;;;;;;;;;;;;18.07;59.62;93425.31;5136889;27;1290;-50
2022/04/01 12:46:17;;;;;;;;;;;;;;;18.08;60.78;93428.84;5087714;27;1902;-50
2022/04/01 12:48:55;;;;;;;;;;;;;;;17.88;60.24;93413.16;5137132;27;1012;-50
2022/04/01 12:51:32;;;;;;;;;;;;;;;17.77;59.05;93406.75;5130599;27;1240;-49
2022/04/01 12:53:58;;;;;;;;;;;;;;;17.67;60.71;93396.63;5116694;28;972;-50
2022/04/01 12:56:34;;;;;;;;;;;;;;;17.68;60.52;93390.16;5116272;28;1025;-50
2022/04/01 12:59:00;;;;;;;;;;;;;;;17.61;59.84;93397.63;5116393;28;1111;-50
2022/04/01 13:01:27;;;;;;;;;;;;;;;17.47;59.67;93407.94;5116473;28;1052;-50
2022/04/01 13:03:54;;;;;;;;;;;;;;;17.31;60.25;93425.78;5116352;28;1036;-50
2022/04/01 13:06:25;;;;;;;;;;;;;;;16.92;63.16;93424.81;5116061;28;2020;-50
2022/04/01 13:08:59;;;;;;;;;;;;;;;16.38;65.30;93428.63;5116085;28;1053;-50
2022/04/01 13:11:34;;;;;;;;;;;;;;;16.02;66.82;93423.56;5116389;28;1047;-51
2022/04/01 13:13:59;;;;;;;;;;;;;;;15.88;65.35;93422.97;5116001;28;984;-50
2022/04/01 13:16:34;;;;;;;;;;;;;;;15.81;66.40;93421.22;5116157;28;1203;-51
2022/04/01 13:19:20;;;;;;;;;;;;;;;15.67;68.57;93418.97;5115872;28;1015;-51
2022/04/01 13:21:46;;;;;;;;;;;;;;;15.63;69.47;93402.44;5115725;28;1553;-51